Decoded Metar for LEMH (MAHON in SPAIN) (IATA:MAH) | Meteo·Mobile Aviation Weather
aviador You're here:

LEMH Decoded Metar

MAHON in SPAIN
Report Time2019-07-22 15:30:00
UTC Time2019-07-22 15:56:11
Flight Rules vfr VFR
Wind140° at 07 kt
W.Decomp.*RWY 19: 4.4 kt HW 5.4 kt LCW
Visibility9999 m
Phenomena:N/A
Clouds:N/A
Expected CloudBase > 6,800 ft AGL from Temp-Dew spread
CeilingNone
Temp32°C (ISA +18)
Dew Point15°C (36% RH)
Heat Index31.6°C
AAT31.1°C
QNH1021 hPa
Density Alt2,231 ft
Elevation269 ft
Report Wrong Elevation
Raw Report
LEMH 221530Z 14007KT 100V190 CAVOK 32/15 Q1021=

Extra information for LEMH:More info

Metar Taf Metar & Taf Last 4 Metars F.Rules Stats Wind Profile Meteogram Temp Stats Airport Information Weather charts Add Link Nearby VenuesMetar ALERT Operation Metar Decoded Social comments